createdAt,value
2023-02-13T00:00:51.539Z,21.08
2023-02-13T00:03:19.088Z,21.52
2023-02-13T00:05:48.148Z,20.35
2023-02-13T00:08:15.732Z,22.35
2023-02-13T00:10:43.247Z,22.07
2023-02-13T00:13:10.767Z,21.38
2023-02-13T00:15:38.309Z,21.88
2023-02-13T00:18:06.128Z,21.30
2023-02-13T00:20:33.789Z,19.67
2023-02-13T00:23:02.753Z,22.40
2023-02-13T00:25:30.406Z,19.85
2023-02-13T00:27:57.970Z,21.30
2023-02-13T00:30:25.542Z,18.20
2023-02-13T00:32:53.090Z,22.00
2023-02-13T00:35:20.597Z,19.73
2023-02-13T00:37:48.107Z,19.88
2023-02-13T00:40:17.005Z,20.45
2023-02-13T00:42:44.545Z,19.65
2023-02-13T00:45:12.137Z,20.05
2023-02-13T00:47:39.640Z,21.87
2023-02-13T00:50:08.277Z,24.30
2023-02-13T00:52:37.428Z,22.52
2023-02-13T00:55:05.542Z,21.40
2023-02-13T00:57:34.545Z,23.02
2023-02-13T01:00:02.173Z,21.23
2023-02-13T01:02:29.728Z,24.85
2023-02-13T01:04:57.603Z,20.88
2023-02-13T01:07:25.317Z,23.10
2023-02-13T01:09:52.925Z,25.25
2023-02-13T01:12:20.481Z,27.10
2023-02-13T01:14:49.408Z,22.20
2023-02-13T01:17:18.490Z,24.73
2023-02-13T01:19:45.994Z,24.52
2023-02-13T01:22:13.632Z,24.70
2023-02-13T01:24:41.294Z,27.47
2023-02-13T01:27:08.853Z,25.80
2023-02-13T01:29:36.362Z,25.33
2023-02-13T01:32:05.716Z,27.45
2023-02-13T01:34:34.930Z,23.58
2023-02-13T01:37:02.436Z,23.67
2023-02-13T01:39:29.970Z,29.00
2023-02-13T01:41:57.531Z,26.67
2023-02-13T01:44:48.268Z,27.17
2023-02-13T01:47:23.349Z,25.35
2023-02-13T01:49:56.701Z,25.57
2023-02-13T01:52:24.231Z,26.35
2023-02-13T01:54:51.778Z,26.88
2023-02-13T01:57:22.572Z,24.90
2023-02-13T01:59:56.702Z,28.65
2023-02-13T02:02:26.184Z,25.00
2023-02-13T02:04:54.348Z,26.83
2023-02-13T02:07:25.348Z,30.25
2023-02-13T02:09:56.945Z,27.58
2023-02-13T02:12:30.197Z,31.10
2023-02-13T02:15:01.015Z,29.63
2023-02-13T02:17:33.549Z,30.08
2023-02-13T02:20:10.620Z,26.33
2023-02-13T02:23:18.474Z,26.73
2023-02-13T02:26:24.592Z,28.90
2023-02-13T02:29:26.771Z,30.27
2023-02-13T02:32:12.731Z,27.00
2023-02-13T02:34:52.033Z,24.38
2023-02-13T02:37:33.961Z,27.58
2023-02-13T02:40:13.574Z,27.48
2023-02-13T02:42:58.598Z,26.83
2023-02-13T02:45:34.024Z,27.92
2023-02-13T02:48:26.129Z,26.52
2023-02-13T02:51:01.737Z,27.95
2023-02-13T02:53:38.793Z,26.40
2023-02-13T02:56:14.366Z,24.73
2023-02-13T02:59:05.912Z,27.35
2023-02-13T03:01:55.317Z,26.13
2023-02-13T03:04:48.067Z,24.35
2023-02-13T03:07:17.963Z,22.95
2023-02-13T03:10:07.286Z,19.37
2023-02-13T03:12:56.690Z,20.58
2023-02-13T03:15:27.248Z,19.05
2023-02-13T03:18:12.741Z,16.58
2023-02-13T03:21:04.915Z,13.18
2023-02-13T03:23:44.788Z,10.00
2023-02-13T03:26:45.622Z,11.38
2023-02-13T03:29:39.541Z,11.32
2023-02-13T03:32:18.800Z,18.35
2023-02-13T03:35:10.313Z,15.35
2023-02-13T03:37:57.374Z,18.77
2023-02-13T03:40:32.137Z,17.38
2023-02-13T03:43:08.008Z,14.10
2023-02-13T03:45:56.999Z,13.48
2023-02-13T03:48:42.314Z,15.38
2023-02-13T03:51:13.151Z,14.23
2023-02-13T03:53:44.543Z,13.38
2023-02-13T03:56:31.675Z,14.35
2023-02-13T03:59:17.275Z,13.02
2023-02-13T04:01:50.965Z,12.50
2023-02-13T04:04:25.081Z,13.37
2023-02-13T04:06:57.166Z,12.85
2023-02-13T04:09:29.769Z,12.50
2023-02-13T04:12:04.906Z,11.98
2023-02-13T04:14:37.695Z,10.48
2023-02-13T04:17:07.168Z,11.77
2023-02-13T04:19:35.493Z,12.18
2023-02-13T04:22:03.538Z,11.57
2023-02-13T04:24:32.395Z,12.40
2023-02-13T04:27:00.200Z,11.80
2023-02-13T04:29:28.055Z,10.57
2023-02-13T04:31:55.668Z,12.15
2023-02-13T04:34:23.247Z,12.27
2023-02-13T04:36:50.786Z,12.15
2023-02-13T04:39:18.613Z,11.18
2023-02-13T04:41:47.478Z,12.73
2023-02-13T04:44:14.999Z,15.45
2023-02-13T04:46:42.492Z,15.13
2023-02-13T04:49:11.022Z,14.80
2023-02-13T04:51:38.658Z,15.77
2023-02-13T04:54:06.259Z,17.03
2023-02-13T04:56:33.858Z,14.40
2023-02-13T04:59:02.688Z,13.48
2023-02-13T05:01:30.594Z,13.93
2023-02-13T05:03:58.134Z,15.98
2023-02-13T05:06:25.657Z,13.33
2023-02-13T05:08:53.245Z,13.45
2023-02-13T05:11:20.769Z,15.40
2023-02-13T05:13:48.290Z,16.40
2023-02-13T05:16:17.194Z,15.65
2023-02-13T05:18:44.848Z,17.40
2023-02-13T05:21:30.022Z,15.18
2023-02-13T05:23:57.574Z,17.25
2023-02-13T05:26:25.215Z,16.80
2023-02-13T05:29:10.497Z,18.00
2023-02-13T05:31:39.419Z,20.50
2023-02-13T05:34:07.022Z,17.10
2023-02-13T05:36:34.620Z,17.27
2023-02-13T05:39:02.278Z,17.70
2023-02-13T05:41:29.806Z,18.33
2023-02-13T05:43:57.369Z,17.47
2023-02-13T05:46:25.048Z,16.30
2023-02-13T05:48:53.976Z,18.52
2023-02-13T05:51:21.792Z,19.25
2023-02-13T05:53:49.324Z,17.20
2023-02-13T05:56:17.166Z,18.27
2023-02-13T05:58:45.597Z,15.50
2023-02-13T06:01:13.572Z,16.55
2023-02-13T06:03:41.244Z,15.82
2023-02-13T06:06:10.237Z,16.85
2023-02-13T06:08:37.802Z,17.73
2023-02-13T06:11:05.988Z,16.27
2023-02-13T06:13:33.574Z,16.58
2023-02-13T06:16:01.115Z,15.75
2023-02-13T06:18:28.738Z,16.25
2023-02-13T06:20:56.602Z,15.70
2023-02-13T06:23:25.648Z,14.65
2023-02-13T06:25:53.206Z,19.38
2023-02-13T06:28:20.762Z,14.75
2023-02-13T06:30:48.987Z,15.35
2023-02-13T06:33:16.588Z,15.80
2023-02-13T06:35:44.102Z,16.90
2023-02-13T06:38:11.653Z,19.55
2023-02-13T06:40:40.560Z,16.30
2023-02-13T06:43:08.153Z,19.55
2023-02-13T06:45:35.696Z,18.80
2023-02-13T06:48:03.211Z,17.77
2023-02-13T06:50:30.773Z,17.20
2023-02-13T06:52:58.267Z,19.38
2023-02-13T06:55:25.773Z,21.80
2023-02-13T06:57:54.734Z,14.93
2023-02-13T07:00:22.861Z,18.02
2023-02-13T07:02:50.471Z,16.20
2023-02-13T07:05:18.245Z,17.08
2023-02-13T07:07:45.810Z,16.70
2023-02-13T07:10:14.788Z,20.80
2023-02-13T07:12:43.076Z,20.80
2023-02-13T07:15:12.761Z,18.77
2023-02-13T07:17:40.340Z,28.25
2023-02-13T07:20:09.672Z,23.20
2023-02-13T07:22:37.260Z,19.63
2023-02-13T07:25:04.830Z,21.15
2023-02-13T07:27:32.408Z,22.67
2023-02-13T07:29:59.908Z,21.65
2023-02-13T07:32:28.748Z,22.35
2023-02-13T07:35:01.934Z,19.93
2023-02-13T07:37:30.532Z,21.33
2023-02-13T07:39:58.256Z,21.67
2023-02-13T07:42:25.897Z,21.80
2023-02-13T07:44:53.418Z,21.35
2023-02-13T07:47:20.931Z,22.30
2023-02-13T07:49:49.822Z,23.38
2023-02-13T07:52:17.441Z,21.35
2023-02-13T07:54:48.159Z,20.90
2023-02-13T07:57:16.737Z,21.67
2023-02-13T07:59:44.443Z,23.40
2023-02-13T08:02:13.489Z,22.92
2023-02-13T08:04:41.341Z,22.85
2023-02-13T08:07:10.260Z,20.88
2023-02-13T08:09:55.562Z,23.52
2023-02-13T08:12:23.631Z,25.93
2023-02-13T08:14:51.176Z,25.40
2023-02-13T08:17:18.733Z,23.40
2023-02-13T08:19:46.293Z,25.95
2023-02-13T08:22:15.137Z,25.85
2023-02-13T08:24:42.701Z,24.70
2023-02-13T08:27:13.455Z,30.45
2023-02-13T08:29:41.048Z,23.85
2023-02-13T08:32:08.829Z,29.10
2023-02-13T08:34:36.517Z,24.42
2023-02-13T08:37:04.582Z,22.57
2023-02-13T08:39:33.520Z,22.23
2023-02-13T08:42:01.200Z,23.98
2023-02-13T08:44:28.774Z,25.73
2023-02-13T08:46:56.825Z,23.20
2023-02-13T08:49:24.407Z,21.67
2023-02-13T08:51:51.946Z,23.60
2023-02-13T08:54:19.540Z,22.17
2023-02-13T08:56:48.392Z,24.42
2023-02-13T08:59:16.066Z,22.42
2023-02-13T09:01:43.641Z,20.93
2023-02-13T09:04:11.431Z,21.77
2023-02-13T09:06:39.305Z,22.10
2023-02-13T09:09:06.885Z,27.58
2023-02-13T09:11:34.450Z,22.38
2023-02-13T09:14:03.507Z,22.47
2023-02-13T09:16:31.077Z,23.42
2023-02-13T09:18:58.672Z,23.38
2023-02-13T09:21:26.276Z,24.90
2023-02-13T09:23:55.128Z,24.20
2023-02-13T09:26:23.067Z,21.43
2023-02-13T09:28:50.772Z,21.20
2023-02-13T09:31:23.990Z,20.98
2023-02-13T09:33:51.781Z,24.17
2023-02-13T09:36:21.145Z,22.23
2023-02-13T09:38:52.684Z,25.37
2023-02-13T09:41:23.995Z,22.83
2023-02-13T09:43:55.883Z,22.52
2023-02-13T09:46:29.232Z,19.05
2023-02-13T09:49:00.486Z,24.27
2023-02-13T09:51:29.632Z,22.07
2023-02-13T09:54:00.310Z,22.08
2023-02-13T09:56:40.673Z,21.60
2023-02-13T09:59:18.480Z,22.58
2023-02-13T10:01:51.438Z,22.88
2023-02-13T10:04:28.367Z,22.63
2023-02-13T10:07:10.355Z,22.85
2023-02-13T10:09:47.134Z,21.63
2023-02-13T10:12:27.506Z,20.35
2023-02-13T10:15:11.332Z,21.25
2023-02-13T10:17:43.564Z,21.87
2023-02-13T10:20:27.088Z,20.75
2023-02-13T10:23:00.450Z,21.35
2023-02-13T10:25:30.842Z,22.17
2023-02-13T10:28:05.583Z,25.30
2023-02-13T10:30:36.944Z,21.87
2023-02-13T10:33:20.296Z,25.10
2023-02-13T10:35:54.671Z,20.95
2023-02-13T10:38:24.443Z,20.67
2023-02-13T10:41:23.293Z,24.25
2023-02-13T10:44:02.738Z,21.10
2023-02-13T10:46:38.197Z,23.95
2023-02-13T10:49:23.629Z,21.42
2023-02-13T10:52:01.002Z,21.45
2023-02-13T10:54:47.736Z,33.97
2023-02-13T10:57:23.194Z,21.23
2023-02-13T11:00:06.502Z,22.50
2023-02-13T11:02:36.870Z,23.33
2023-02-13T11:05:16.993Z,22.75
2023-02-13T11:07:46.717Z,21.67
2023-02-13T11:10:20.667Z,20.17
2023-02-13T11:12:48.899Z,23.17
2023-02-13T11:15:23.714Z,23.80
2023-02-13T11:17:52.643Z,22.92
2023-02-13T11:20:29.460Z,21.50
2023-02-13T11:22:58.027Z,21.13
2023-02-13T11:25:28.817Z,25.45
2023-02-13T11:28:09.571Z,32.47
2023-02-13T11:30:39.776Z,22.90
2023-02-13T11:33:19.196Z,23.42
2023-02-13T11:35:48.927Z,25.23
2023-02-13T11:38:24.351Z,24.27
2023-02-13T11:41:04.140Z,24.83
2023-02-13T11:43:36.730Z,23.80
2023-02-13T11:46:06.512Z,23.33
2023-02-13T11:48:34.644Z,21.67
2023-02-13T11:51:04.544Z,26.17
2023-02-13T11:53:37.360Z,26.50
2023-02-13T11:56:13.997Z,24.95
2023-02-13T11:58:42.329Z,26.13
2023-02-13T12:01:26.210Z,31.23
2023-02-13T12:04:03.788Z,24.73
2023-02-13T12:06:39.462Z,29.95
2023-02-13T12:09:12.667Z,28.90
2023-02-13T12:11:44.864Z,26.48
2023-02-13T12:14:17.412Z,24.20
2023-02-13T12:16:50.392Z,25.27
2023-02-13T12:19:23.810Z,29.67
2023-02-13T12:22:09.563Z,25.80
2023-02-13T12:25:15.710Z,36.10
2023-02-13T12:27:51.015Z,27.80
2023-02-13T12:30:47.205Z,28.02
2023-02-13T12:33:27.254Z,27.90
2023-02-13T12:36:02.956Z,32.22
2023-02-13T12:38:51.350Z,26.55
2023-02-13T12:41:21.605Z,28.77
2023-02-13T12:44:12.909Z,29.02
2023-02-13T12:46:49.684Z,30.25
2023-02-13T12:49:37.305Z,27.08
2023-02-13T12:52:21.826Z,29.95
2023-02-13T12:55:01.503Z,29.07
2023-02-13T12:57:45.053Z,28.17
2023-02-13T13:00:33.728Z,29.15
2023-02-13T13:03:18.621Z,30.20
2023-02-13T13:06:12.780Z,31.27
2023-02-13T13:08:57.807Z,27.93
2023-02-13T13:11:43.367Z,27.27
2023-02-13T13:14:18.009Z,29.88
2023-02-13T13:16:53.044Z,30.25
2023-02-13T13:19:31.666Z,28.00
2023-02-13T13:22:04.204Z,25.77
2023-02-13T13:24:44.040Z,31.15
2023-02-13T13:27:21.030Z,29.80
2023-02-13T13:29:55.536Z,30.13
2023-02-13T13:32:24.045Z,29.50
2023-02-13T13:34:52.517Z,29.43
2023-02-13T13:37:27.736Z,29.65
2023-02-13T13:40:04.673Z,31.38
2023-02-13T13:42:40.639Z,30.60
2023-02-13T13:45:23.890Z,31.20
2023-02-13T13:48:28.597Z,30.37
2023-02-13T13:50:57.631Z,27.70
2023-02-13T13:53:26.321Z,30.83
2023-02-13T13:56:09.645Z,31.92
2023-02-13T13:58:42.483Z,31.15
2023-02-13T14:01:23.230Z,31.07
2023-02-13T14:03:52.933Z,33.40
2023-02-13T14:06:22.214Z,32.42
2023-02-13T14:09:02.056Z,33.88
2023-02-13T14:11:33.516Z,32.80
2023-02-13T14:14:03.634Z,30.50
2023-02-13T14:16:43.160Z,31.90
2023-02-13T14:19:29.892Z,31.10
2023-02-13T14:22:28.619Z,30.65
2023-02-13T14:24:58.403Z,34.72
2023-02-13T14:27:29.577Z,31.57
2023-02-13T14:29:59.299Z,31.10
2023-02-13T14:32:31.913Z,27.10
2023-02-13T14:35:01.621Z,27.50
2023-02-13T14:37:35.630Z,34.58
2023-02-13T14:40:54.094Z,31.50
2023-02-13T14:43:32.216Z,33.78
2023-02-13T14:46:08.677Z,31.20
2023-02-13T14:48:44.301Z,27.98
2023-02-13T14:51:28.457Z,28.65
2023-02-13T14:54:01.769Z,28.87
2023-02-13T14:56:30.520Z,29.25
2023-02-13T14:59:06.792Z,28.48
2023-02-13T15:01:40.819Z,27.42
2023-02-13T15:04:13.651Z,25.48
2023-02-13T15:06:44.019Z,28.93
2023-02-13T15:09:25.133Z,26.60
2023-02-13T15:11:52.661Z,27.15
2023-02-13T15:14:26.607Z,25.50
2023-02-13T15:17:00.476Z,25.48
2023-02-13T15:19:28.361Z,28.07
2023-02-13T15:21:59.237Z,29.17
2023-02-13T15:24:28.327Z,30.15
2023-02-13T15:27:01.759Z,27.00
2023-02-13T15:29:43.971Z,28.48
2023-02-13T15:32:26.924Z,26.20
2023-02-13T15:34:55.192Z,28.05
2023-02-13T15:37:24.791Z,25.02
2023-02-13T15:39:52.417Z,26.17
2023-02-13T15:42:19.986Z,25.17
2023-02-13T15:44:50.109Z,26.70
2023-02-13T15:47:23.302Z,24.13
2023-02-13T15:49:52.452Z,23.42
2023-02-13T15:52:28.033Z,23.63
2023-02-13T15:54:57.019Z,23.80
2023-02-13T15:57:26.811Z,25.83
2023-02-13T15:59:56.224Z,25.08
2023-02-13T16:02:29.557Z,28.75
2023-02-13T16:04:59.694Z,27.85
2023-02-13T16:07:27.418Z,26.85
2023-02-13T16:10:15.401Z,24.93
2023-02-13T16:12:47.785Z,24.27
2023-02-13T16:15:19.325Z,27.55
2023-02-13T16:17:48.820Z,26.90
2023-02-13T16:20:22.538Z,26.33
2023-02-13T16:22:53.834Z,25.27
2023-02-13T16:25:25.521Z,25.63
2023-02-13T16:27:55.492Z,24.08
2023-02-13T16:30:28.128Z,26.92
2023-02-13T16:33:21.108Z,27.80
2023-02-13T16:35:51.703Z,25.97
2023-02-13T16:38:34.638Z,29.13
2023-02-13T16:41:05.725Z,28.08
2023-02-13T16:43:44.841Z,28.00
2023-02-13T16:46:18.931Z,25.98
2023-02-13T16:48:49.484Z,25.27
2023-02-13T16:51:26.604Z,26.55
2023-02-13T16:53:59.138Z,24.13
2023-02-13T16:56:27.382Z,27.38
2023-02-13T16:59:06.481Z,26.25
2023-02-13T17:01:38.166Z,25.73
2023-02-13T17:04:22.878Z,27.77
2023-02-13T17:06:56.031Z,27.20
2023-02-13T17:09:24.401Z,24.23
2023-02-13T17:11:53.891Z,26.17
2023-02-13T17:14:21.828Z,27.30
2023-02-13T17:16:49.686Z,27.13
2023-02-13T17:19:17.210Z,26.60
2023-02-13T17:21:44.801Z,28.30
2023-02-13T17:24:18.580Z,28.92
2023-02-13T17:26:46.123Z,26.90
2023-02-13T17:29:13.769Z,28.95
2023-02-13T17:31:41.443Z,25.33
2023-02-13T17:34:11.726Z,28.65
2023-02-13T17:36:39.290Z,29.35
2023-02-13T17:39:06.876Z,28.53
2023-02-13T17:41:38.123Z,27.80
2023-02-13T17:44:05.998Z,28.25
2023-02-13T17:46:33.507Z,30.52
2023-02-13T17:49:01.008Z,32.30
2023-02-13T17:51:28.623Z,29.90
2023-02-13T17:53:56.260Z,28.73
2023-02-13T17:56:23.774Z,28.58
2023-02-13T17:58:52.735Z,30.80
2023-02-13T18:01:20.355Z,29.02
2023-02-13T18:03:50.112Z,30.30
2023-02-13T18:06:17.638Z,31.80
2023-02-13T18:08:45.221Z,34.47
2023-02-13T18:11:13.183Z,31.33
2023-02-13T18:13:45.850Z,31.70
2023-02-13T18:16:15.430Z,31.63
2023-02-13T18:18:43.001Z,32.70
2023-02-13T18:21:12.594Z,30.92
2023-02-13T18:23:40.951Z,31.27
2023-02-13T18:26:10.798Z,31.48
2023-02-13T18:28:38.741Z,30.03
2023-02-13T18:31:06.440Z,34.03
2023-02-13T18:33:35.393Z,35.72
2023-02-13T18:36:03.139Z,30.60
2023-02-13T18:38:30.776Z,32.00
2023-02-13T18:40:58.788Z,30.70
2023-02-13T18:43:26.652Z,35.60
2023-02-13T18:45:54.334Z,32.65
2023-02-13T18:48:22.062Z,36.03
2023-02-13T18:50:50.910Z,33.15
2023-02-13T18:53:18.497Z,32.93
2023-02-13T18:55:46.055Z,39.90
2023-02-13T18:58:13.648Z,33.85
2023-02-13T19:00:41.213Z,36.55
2023-02-13T19:03:08.782Z,33.92
2023-02-13T19:05:41.159Z,35.67
2023-02-13T19:08:10.102Z,32.95
2023-02-13T19:10:37.822Z,33.42
2023-02-13T19:13:05.392Z,34.15
2023-02-13T19:15:33.053Z,35.72
2023-02-13T19:18:00.640Z,32.33
2023-02-13T19:20:28.424Z,35.22
2023-02-13T19:22:56.409Z,32.67
2023-02-13T19:25:25.417Z,33.40
2023-02-13T19:27:53.059Z,36.42
2023-02-13T19:30:20.788Z,33.60
2023-02-13T19:32:48.370Z,38.70
2023-02-13T19:35:16.010Z,33.88
2023-02-13T19:37:44.616Z,37.00
2023-02-13T19:40:13.856Z,33.95
2023-02-13T19:42:42.882Z,34.27
2023-02-13T19:45:11.322Z,33.28
2023-02-13T19:47:38.988Z,34.15
2023-02-13T19:50:08.084Z,33.95
2023-02-13T19:52:35.729Z,32.80
2023-02-13T19:55:03.398Z,35.00
2023-02-13T19:57:31.033Z,33.50
2023-02-13T20:00:01.789Z,31.15
2023-02-13T20:02:39.652Z,35.83
2023-02-13T20:05:08.770Z,33.10
2023-02-13T20:07:36.408Z,32.43
2023-02-13T20:10:04.001Z,33.90
2023-02-13T20:12:31.640Z,37.42
2023-02-13T20:15:00.572Z,36.22
2023-02-13T20:17:28.216Z,34.38
2023-02-13T20:19:55.940Z,33.57
2023-02-13T20:22:23.546Z,33.30
2023-02-13T20:24:51.055Z,35.63
2023-02-13T20:27:18.868Z,37.35
2023-02-13T20:29:46.627Z,39.92
2023-02-13T20:32:16.222Z,35.17
2023-02-13T20:34:58.999Z,37.25
2023-02-13T20:37:27.501Z,38.00
2023-02-13T20:39:55.127Z,35.75
2023-02-13T20:42:22.678Z,37.40
2023-02-13T20:44:50.323Z,35.47
2023-02-13T20:47:19.741Z,35.58
2023-02-13T20:49:47.282Z,38.08
2023-02-13T20:52:14.839Z,34.58
2023-02-13T20:54:42.611Z,36.10
2023-02-13T20:57:10.147Z,34.87
2023-02-13T20:59:37.718Z,34.47
2023-02-13T21:02:06.582Z,35.55
2023-02-13T21:04:35.888Z,33.53
2023-02-13T21:07:03.551Z,35.20
2023-02-13T21:09:31.139Z,34.37
2023-02-13T21:11:58.732Z,39.42
2023-02-13T21:14:26.240Z,37.00
2023-02-13T21:16:53.877Z,35.22
2023-02-13T21:19:21.485Z,38.72
2023-02-13T21:21:50.452Z,36.70
2023-02-13T21:24:21.589Z,38.25
2023-02-13T21:26:50.246Z,34.40
2023-02-13T21:29:17.847Z,34.83
2023-02-13T21:31:48.127Z,34.65
2023-02-13T21:34:17.474Z,37.43
2023-02-13T21:36:45.202Z,35.47
2023-02-13T21:39:14.669Z,35.20
2023-02-13T21:41:43.563Z,38.60
2023-02-13T21:44:13.242Z,35.20
2023-02-13T21:46:41.903Z,37.50
2023-02-13T21:49:13.375Z,36.03
2023-02-13T21:51:41.730Z,35.38
2023-02-13T21:54:09.363Z,41.42
2023-02-13T21:56:40.660Z,35.55
2023-02-13T21:59:08.910Z,38.30
2023-02-13T22:01:47.403Z,35.67
2023-02-13T22:04:15.392Z,33.40
2023-02-13T22:06:43.051Z,35.35
2023-02-13T22:09:12.237Z,38.17
2023-02-13T22:11:42.120Z,36.07
2023-02-13T22:14:13.320Z,36.00
2023-02-13T22:16:42.372Z,32.90
2023-02-13T22:19:13.603Z,36.05
2023-02-13T22:21:41.315Z,35.53
2023-02-13T22:24:09.047Z,37.77
2023-02-13T22:26:38.879Z,37.83
2023-02-13T22:29:09.192Z,37.17
2023-02-13T22:31:37.770Z,34.72
2023-02-13T22:34:06.351Z,36.55
2023-02-13T22:36:34.717Z,34.30
2023-02-13T22:39:02.537Z,37.25
2023-02-13T22:41:30.539Z,36.33
2023-02-13T22:43:58.698Z,37.33
2023-02-13T22:46:30.374Z,34.58
2023-02-13T22:48:58.880Z,38.20
2023-02-13T22:51:29.212Z,35.33
2023-02-13T22:53:58.453Z,38.97
2023-02-13T22:56:27.670Z,40.25
2023-02-13T22:58:55.558Z,39.13
2023-02-13T23:01:25.310Z,35.93
2023-02-13T23:03:54.751Z,35.63
2023-02-13T23:06:22.636Z,35.85
2023-02-13T23:08:52.530Z,36.72
2023-02-13T23:11:39.184Z,38.53
2023-02-13T23:14:06.852Z,37.20
2023-02-13T23:16:54.559Z,37.53
2023-02-13T23:19:22.581Z,40.35
2023-02-13T23:21:50.120Z,37.00
2023-02-13T23:24:17.837Z,38.20
2023-02-13T23:26:45.446Z,33.47
2023-02-13T23:29:13.024Z,33.78
2023-02-13T23:31:40.620Z,36.30
2023-02-13T23:34:08.349Z,35.30
2023-02-13T23:36:37.433Z,36.13
2023-02-13T23:39:05.206Z,39.20
2023-02-13T23:41:32.736Z,37.00
2023-02-13T23:44:00.297Z,37.20
2023-02-13T23:46:28.157Z,35.78
2023-02-13T23:48:55.759Z,36.10
2023-02-13T23:51:25.473Z,37.63
2023-02-13T23:53:57.106Z,36.05
2023-02-13T23:56:25.886Z,37.30
2023-02-13T23:58:53.530Z,38.50
